Aeroporto :
LOGIN :

Iscrizione | Disclaimer

   EN    FR    IT 

 










Sommario :    VFR   VFR Marginale   IFR   IFR Intensivo   IFR Molto Intensivo
Visibilità : 
Base nubi : 
>= 8 km
>= 3000ft
5 / 8 km
1000 / 3000 ft
1500m / 5 km
500 / 1000 ft
800 / 1500m
200 / 500 ft
< 800m
< 200 ft
Simboli :   Temporali  Nebbia  Neve Forte  Precipitazioni Forti  Vento > 20 kt
SIGMETs :   Varie  Temporali  Ghiacco  Turbolenza  Onda orograficha  Ceneri Vulcaniche






- Altitudine del aeroporto : -13 ft
- Codice IATA : LEY


EHLE - Lelystad

ULTIMO METAR :
  • 121255Z AUTO 21013KT 180V240 9999 // SCT010 05/04 Q0998 RE// BECMG BKN020 TEMPO 6000 -SHRA -RA FEW020CB

METARs OBSOLETI :
  • 121225Z AUTO 21011KT 180V240 9999 // FEW014 BKN023 BKN027 06/04 Q0997 RE// TEMPO 6000 -SHRA -RA BKN014 FEW020CB
  • 121155Z AUTO 22014KT 9999 // SCT016 BKN020 OVC023 05/03 Q0998 RE// TEMPO 4000 SHRA RA BKN014 FEW020CB
  • 121125Z AUTO 20014KT 170V230 9999 // SCT014 BKN016 BKN023 06/04 Q0998 RE// TEMPO 23015G25KT 4000 SHRA RA BKN014 FEW020CB
  • 121055Z AUTO 20012KT 160V230 9999 // SCT014 BKN016 BKN020 05/04 Q0998 RE// TEMPO 4000 SHRA RA BKN015 FEW020CB
  • 121025Z AUTO 21010KT 170V240 9999 // FEW010 SCT013 BKN016 05/04 Q0998 RE// TEMPO BKN013

TAF TAF EHLE
Valido dal 12 a 12 ore il 13 a 18 ore UTC


121115Z 1212/1318 20013KT 9999 BKN020
PROB40
TEMPO 1212/1216 4000 SHRA RA BKN014 SCT025CB
TEMPO 1222/1302 21015G25KT 4000 RA SHRA BKN010 FEW015CB
PROB40 1302/1310 BKN006
PROB40
TEMPO 1302/1316 27015G25KT 4000 SHRA SHRAGS BKN010 SCT025CB
BECMG 1309/1312 25011KT
BECMG 1315/1318 19006KT



MetMap, La meteo Aeronautica in un colpo d'occhio ! - Copyright ORBIFLY Dicembre 2007 - Disclaimer

ORBIFLY MET'MAP TEAM :

Programmazione e sviluppo : Alexandra Zaïnal
Concezione e sviluppo : Baudouin d'Aumeries
Co-Programmazione e sviluppo : Marc-Olivier Méhu
Supporto tecnico e logistico : Manuel Goepfert
Aiuto per la traduzione : Arnaldo La Scala

Contatto : metmap@orbifly.com




FONTI E CREDITI :

   NOAA